sensor_id;sensor_type;location;lat;lon;timestamp;P1;durP1;ratioP1;P2;durP2;ratioP2
76599;SDS011;65489;52.048;6.090;2023-05-17T00:00:52;1.10;;;0.57;;
76599;SDS011;65489;52.048;6.090;2023-05-17T00:03:17;2.10;;;0.63;;
76599;SDS011;65489;52.048;6.090;2023-05-17T00:05:43;2.05;;;0.52;;
76599;SDS011;65489;52.048;6.090;2023-05-17T00:08:08;1.67;;;0.70;;
76599;SDS011;65489;52.048;6.090;2023-05-17T00:10:34;0.95;;;0.60;;
76599;SDS011;65489;52.048;6.090;2023-05-17T00:12:59;1.65;;;0.57;;
76599;SDS011;65489;52.048;6.090;2023-05-17T00:15:25;1.45;;;0.60;;
76599;SDS011;65489;52.048;6.090;2023-05-17T00:17:50;2.92;;;0.60;;
76599;SDS011;65489;52.048;6.090;2023-05-17T00:20:16;1.05;;;0.60;;
76599;SDS011;65489;52.048;6.090;2023-05-17T00:22:41;1.23;;;0.50;;
76599;SDS011;65489;52.048;6.090;2023-05-17T00:25:09;2.42;;;0.77;;
76599;SDS011;65489;52.048;6.090;2023-05-17T00:27:35;2.15;;;0.73;;
76599;SDS011;65489;52.048;6.090;2023-05-17T00:30:00;1.35;;;0.57;;
76599;SDS011;65489;52.048;6.090;2023-05-17T00:32:26;2.35;;;0.70;;
76599;SDS011;65489;52.048;6.090;2023-05-17T00:34:51;2.30;;;0.80;;
76599;SDS011;65489;52.048;6.090;2023-05-17T00:37:16;2.20;;;0.70;;
76599;SDS011;65489;52.048;6.090;2023-05-17T00:39:42;2.45;;;0.73;;
76599;SDS011;65489;52.048;6.090;2023-05-17T00:42:07;1.33;;;0.80;;
76599;SDS011;65489;52.048;6.090;2023-05-17T00:44:33;1.98;;;0.88;;
76599;SDS011;65489;52.048;6.090;2023-05-17T00:46:58;2.45;;;0.68;;
76599;SDS011;65489;52.048;6.090;2023-05-17T00:49:25;1.88;;;0.70;;
76599;SDS011;65489;52.048;6.090;2023-05-17T00:51:51;2.08;;;0.65;;
76599;SDS011;65489;52.048;6.090;2023-05-17T00:54:17;1.50;;;0.70;;
76599;SDS011;65489;52.048;6.090;2023-05-17T00:56:42;1.77;;;0.68;;
76599;SDS011;65489;52.048;6.090;2023-05-17T00:59:08;2.38;;;0.85;;
76599;SDS011;65489;52.048;6.090;2023-05-17T01:01:34;1.40;;;0.70;;
76599;SDS011;65489;52.048;6.090;2023-05-17T01:04:01;1.20;;;0.70;;
76599;SDS011;65489;52.048;6.090;2023-05-17T01:06:26;4.47;;;0.80;;
76599;SDS011;65489;52.048;6.090;2023-05-17T01:08:52;1.73;;;0.80;;
76599;SDS011;65489;52.048;6.090;2023-05-17T01:11:21;2.00;;;0.77;;
76599;SDS011;65489;52.048;6.090;2023-05-17T01:14:08;1.33;;;0.90;;
76599;SDS011;65489;52.048;6.090;2023-05-17T01:16:43;1.83;;;0.60;;
76599;SDS011;65489;52.048;6.090;2023-05-17T01:19:18;1.52;;;0.70;;
76599;SDS011;65489;52.048;6.090;2023-05-17T01:24:52;0.88;;;0.68;;
76599;SDS011;65489;52.048;6.090;2023-05-17T01:27:24;1.52;;;0.70;;
76599;SDS011;65489;52.048;6.090;2023-05-17T01:29:50;2.65;;;0.60;;
76599;SDS011;65489;52.048;6.090;2023-05-17T01:32:18;2.42;;;0.80;;
76599;SDS011;65489;52.048;6.090;2023-05-17T01:34:44;2.00;;;0.90;;
76599;SDS011;65489;52.048;6.090;2023-05-17T01:37:09;0.93;;;0.57;;
76599;SDS011;65489;52.048;6.090;2023-05-17T01:39:35;2.28;;;0.93;;
76599;SDS011;65489;52.048;6.090;2023-05-17T01:42:21;1.63;;;0.65;;
76599;SDS011;65489;52.048;6.090;2023-05-17T01:45:09;2.63;;;0.80;;
76599;SDS011;65489;52.048;6.090;2023-05-17T01:47:57;1.20;;;0.70;;
76599;SDS011;65489;52.048;6.090;2023-05-17T01:50:34;3.10;;;0.88;;
76599;SDS011;65489;52.048;6.090;2023-05-17T01:53:02;1.50;;;0.60;;
76599;SDS011;65489;52.048;6.090;2023-05-17T01:55:51;2.22;;;0.80;;
76599;SDS011;65489;52.048;6.090;2023-05-17T01:58:23;1.70;;;0.60;;
76599;SDS011;65489;52.048;6.090;2023-05-17T02:00:51;2.20;;;0.70;;
76599;SDS011;65489;52.048;6.090;2023-05-17T02:03:19;1.73;;;0.82;;
76599;SDS011;65489;52.048;6.090;2023-05-17T02:05:49;1.98;;;0.80;;
76599;SDS011;65489;52.048;6.090;2023-05-17T02:08:14;1.45;;;0.70;;
76599;SDS011;65489;52.048;6.090;2023-05-17T02:10:40;1.05;;;0.65;;
76599;SDS011;65489;52.048;6.090;2023-05-17T02:13:05;1.42;;;0.90;;
76599;SDS011;65489;52.048;6.090;2023-05-17T02:15:31;1.98;;;0.80;;
76599;SDS011;65489;52.048;6.090;2023-05-17T02:17:57;1.60;;;0.80;;
76599;SDS011;65489;52.048;6.090;2023-05-17T02:20:23;1.88;;;0.90;;
76599;SDS011;65489;52.048;6.090;2023-05-17T02:22:50;1.27;;;0.75;;
76599;SDS011;65489;52.048;6.090;2023-05-17T02:25:15;1.73;;;0.90;;
76599;SDS011;65489;52.048;6.090;2023-05-17T02:27:41;1.27;;;0.80;;
76599;SDS011;65489;52.048;6.090;2023-05-17T02:30:06;2.17;;;0.90;;
76599;SDS011;65489;52.048;6.090;2023-05-17T02:32:32;1.77;;;0.90;;
76599;SDS011;65489;52.048;6.090;2023-05-17T02:34:58;2.70;;;0.73;;
76599;SDS011;65489;52.048;6.090;2023-05-17T02:37:23;1.75;;;0.80;;
76599;SDS011;65489;52.048;6.090;2023-05-17T02:39:49;1.90;;;0.80;;
76599;SDS011;65489;52.048;6.090;2023-05-17T02:42:14;2.38;;;0.98;;
76599;SDS011;65489;52.048;6.090;2023-05-17T02:44:40;2.80;;;0.90;;
76599;SDS011;65489;52.048;6.090;2023-05-17T02:47:05;3.45;;;1.00;;
76599;SDS011;65489;52.048;6.090;2023-05-17T02:49:31;2.30;;;0.75;;
76599;SDS011;65489;52.048;6.090;2023-05-17T02:51:56;2.05;;;0.75;;
76599;SDS011;65489;52.048;6.090;2023-05-17T02:54:21;2.00;;;1.00;;
76599;SDS011;65489;52.048;6.090;2023-05-17T02:56:47;3.30;;;1.05;;
76599;SDS011;65489;52.048;6.090;2023-05-17T02:59:14;1.90;;;1.00;;
76599;SDS011;65489;52.048;6.090;2023-05-17T03:01:40;1.92;;;0.98;;
76599;SDS011;65489;52.048;6.090;2023-05-17T03:04:06;2.55;;;0.88;;
76599;SDS011;65489;52.048;6.090;2023-05-17T03:06:33;1.55;;;0.90;;
76599;SDS011;65489;52.048;6.090;2023-05-17T03:08:59;1.50;;;0.82;;
76599;SDS011;65489;52.048;6.090;2023-05-17T03:11:25;1.73;;;0.85;;
76599;SDS011;65489;52.048;6.090;2023-05-17T03:13:52;2.13;;;0.80;;
76599;SDS011;65489;52.048;6.090;2023-05-17T03:16:22;2.63;;;0.90;;
76599;SDS011;65489;52.048;6.090;2023-05-17T03:18:49;2.35;;;0.80;;
76599;SDS011;65489;52.048;6.090;2023-05-17T03:21:15;3.92;;;0.93;;
76599;SDS011;65489;52.048;6.090;2023-05-17T03:23:41;2.17;;;0.80;;
76599;SDS011;65489;52.048;6.090;2023-05-17T03:26:06;3.35;;;0.90;;
76599;SDS011;65489;52.048;6.090;2023-05-17T03:28:39;2.75;;;0.90;;
76599;SDS011;65489;52.048;6.090;2023-05-17T03:31:05;1.63;;;0.80;;
76599;SDS011;65489;52.048;6.090;2023-05-17T03:33:32;1.98;;;0.90;;
76599;SDS011;65489;52.048;6.090;2023-05-17T03:35:57;1.42;;;0.80;;
76599;SDS011;65489;52.048;6.090;2023-05-17T03:38:23;2.25;;;0.82;;
76599;SDS011;65489;52.048;6.090;2023-05-17T03:40:50;2.15;;;0.77;;
76599;SDS011;65489;52.048;6.090;2023-05-17T03:43:15;2.25;;;0.73;;
76599;SDS011;65489;52.048;6.090;2023-05-17T03:45:41;2.47;;;1.00;;
76599;SDS011;65489;52.048;6.090;2023-05-17T03:48:07;3.90;;;0.73;;
76599;SDS011;65489;52.048;6.090;2023-05-17T03:50:33;2.40;;;0.98;;
76599;SDS011;65489;52.048;6.090;2023-05-17T03:52:59;1.50;;;0.70;;
76599;SDS011;65489;52.048;6.090;2023-05-17T03:55:25;1.38;;;0.75;;
76599;SDS011;65489;52.048;6.090;2023-05-17T03:57:50;2.45;;;1.00;;
76599;SDS011;65489;52.048;6.090;2023-05-17T04:00:16;2.78;;;0.90;;
76599;SDS011;65489;52.048;6.090;2023-05-17T04:02:46;2.30;;;1.00;;
76599;SDS011;65489;52.048;6.090;2023-05-17T04:05:12;2.20;;;0.88;;
76599;SDS011;65489;52.048;6.090;2023-05-17T04:07:40;1.65;;;0.85;;
76599;SDS011;65489;52.048;6.090;2023-05-17T04:10:05;1.92;;;0.80;;
76599;SDS011;65489;52.048;6.090;2023-05-17T04:12:32;1.85;;;0.73;;
76599;SDS011;65489;52.048;6.090;2023-05-17T04:14:57;2.03;;;0.77;;
76599;SDS011;65489;52.048;6.090;2023-05-17T04:17:24;2.40;;;0.90;;
76599;SDS011;65489;52.048;6.090;2023-05-17T04:19:49;2.83;;;0.80;;
76599;SDS011;65489;52.048;6.090;2023-05-17T04:22:14;2.63;;;0.98;;
76599;SDS011;65489;52.048;6.090;2023-05-17T04:24:42;2.78;;;0.85;;
76599;SDS011;65489;52.048;6.090;2023-05-17T04:27:08;2.67;;;0.80;;
76599;SDS011;65489;52.048;6.090;2023-05-17T04:29:33;1.55;;;0.70;;
76599;SDS011;65489;52.048;6.090;2023-05-17T04:31:59;2.35;;;0.90;;
76599;SDS011;65489;52.048;6.090;2023-05-17T04:34:25;1.98;;;0.90;;
76599;SDS011;65489;52.048;6.090;2023-05-17T04:36:53;1.75;;;0.80;;
76599;SDS011;65489;52.048;6.090;2023-05-17T04:39:19;1.50;;;0.75;;
76599;SDS011;65489;52.048;6.090;2023-05-17T04:41:45;1.67;;;0.80;;
76599;SDS011;65489;52.048;6.090;2023-05-17T04:44:12;2.35;;;0.80;;
76599;SDS011;65489;52.048;6.090;2023-05-17T04:46:38;1.50;;;0.73;;
76599;SDS011;65489;52.048;6.090;2023-05-17T04:49:05;2.00;;;0.80;;
76599;SDS011;65489;52.048;6.090;2023-05-17T04:51:31;2.25;;;0.98;;
76599;SDS011;65489;52.048;6.090;2023-05-17T04:53:57;2.08;;;0.90;;
76599;SDS011;65489;52.048;6.090;2023-05-17T04:56:27;2.38;;;1.30;;
76599;SDS011;65489;52.048;6.090;2023-05-17T04:58:53;1.77;;;0.68;;
76599;SDS011;65489;52.048;6.090;2023-05-17T05:01:19;1.38;;;0.77;;
76599;SDS011;65489;52.048;6.090;2023-05-17T05:03:44;1.95;;;0.80;;
76599;SDS011;65489;52.048;6.090;2023-05-17T05:06:11;3.33;;;1.00;;
76599;SDS011;65489;52.048;6.090;2023-05-17T05:08:37;1.75;;;0.85;;
76599;SDS011;65489;52.048;6.090;2023-05-17T05:11:04;3.13;;;0.75;;
76599;SDS011;65489;52.048;6.090;2023-05-17T05:13:30;1.00;;;0.60;;
76599;SDS011;65489;52.048;6.090;2023-05-17T05:15:56;1.75;;;0.80;;
76599;SDS011;65489;52.048;6.090;2023-05-17T05:18:22;2.92;;;0.73;;
76599;SDS011;65489;52.048;6.090;2023-05-17T05:20:49;2.38;;;0.90;;
76599;SDS011;65489;52.048;6.090;2023-05-17T05:23:15;2.17;;;0.90;;
76599;SDS011;65489;52.048;6.090;2023-05-17T05:28:10;1.40;;;0.70;;
76599;SDS011;65489;52.048;6.090;2023-05-17T05:30:38;1.67;;;0.65;;
76599;SDS011;65489;52.048;6.090;2023-05-17T05:33:04;2.22;;;0.90;;
76599;SDS011;65489;52.048;6.090;2023-05-17T05:35:29;2.13;;;0.60;;
76599;SDS011;65489;52.048;6.090;2023-05-17T05:37:56;2.05;;;0.90;;
76599;SDS011;65489;52.048;6.090;2023-05-17T05:40:22;2.63;;;1.10;;
76599;SDS011;65489;52.048;6.090;2023-05-17T05:42:48;1.98;;;0.88;;
76599;SDS011;65489;52.048;6.090;2023-05-17T05:45:14;1.88;;;0.75;;
76599;SDS011;65489;52.048;6.090;2023-05-17T05:47:42;3.10;;;0.73;;
76599;SDS011;65489;52.048;6.090;2023-05-17T05:50:07;1.42;;;0.80;;
76599;SDS011;65489;52.048;6.090;2023-05-17T05:52:34;2.35;;;0.90;;
76599;SDS011;65489;52.048;6.090;2023-05-17T05:54:59;1.92;;;0.77;;
76599;SDS011;65489;52.048;6.090;2023-05-17T05:57:25;1.80;;;0.90;;
76599;SDS011;65489;52.048;6.090;2023-05-17T05:59:50;2.00;;;0.88;;
76599;SDS011;65489;52.048;6.090;2023-05-17T06:02:16;1.52;;;0.70;;
76599;SDS011;65489;52.048;6.090;2023-05-17T06:04:41;1.77;;;0.80;;
76599;SDS011;65489;52.048;6.090;2023-05-17T06:07:07;2.13;;;0.88;;
76599;SDS011;65489;52.048;6.090;2023-05-17T06:09:33;1.83;;;0.65;;
76599;SDS011;65489;52.048;6.090;2023-05-17T06:11:58;2.58;;;0.75;;
76599;SDS011;65489;52.048;6.090;2023-05-17T06:14:25;1.35;;;0.70;;
76599;SDS011;65489;52.048;6.090;2023-05-17T06:16:50;2.38;;;0.80;;
76599;SDS011;65489;52.048;6.090;2023-05-17T06:19:16;2.08;;;0.80;;
76599;SDS011;65489;52.048;6.090;2023-05-17T06:21:41;1.55;;;0.70;;
76599;SDS011;65489;52.048;6.090;2023-05-17T06:24:07;2.70;;;0.85;;
76599;SDS011;65489;52.048;6.090;2023-05-17T06:26:32;1.75;;;0.65;;
76599;SDS011;65489;52.048;6.090;2023-05-17T06:28:58;2.40;;;0.80;;
76599;SDS011;65489;52.048;6.090;2023-05-17T06:31:24;1.95;;;0.60;;
76599;SDS011;65489;52.048;6.090;2023-05-17T06:33:50;1.50;;;0.70;;
76599;SDS011;65489;52.048;6.090;2023-05-17T06:36:15;2.40;;;0.93;;
76599;SDS011;65489;52.048;6.090;2023-05-17T06:38:40;5.75;;;1.02;;
76599;SDS011;65489;52.048;6.090;2023-05-17T06:41:06;3.03;;;1.40;;
76599;SDS011;65489;52.048;6.090;2023-05-17T06:43:31;6.53;;;1.80;;
76599;SDS011;65489;52.048;6.090;2023-05-17T06:45:57;6.35;;;1.27;;
76599;SDS011;65489;52.048;6.090;2023-05-17T06:48:22;8.05;;;1.50;;
76599;SDS011;65489;52.048;6.090;2023-05-17T06:50:48;10.18;;;1.50;;
76599;SDS011;65489;52.048;6.090;2023-05-17T06:53:13;6.47;;;1.75;;
76599;SDS011;65489;52.048;6.090;2023-05-17T06:55:39;7.32;;;1.52;;
76599;SDS011;65489;52.048;6.090;2023-05-17T06:58:05;7.93;;;1.70;;
76599;SDS011;65489;52.048;6.090;2023-05-17T07:00:30;7.25;;;1.73;;
76599;SDS011;65489;52.048;6.090;2023-05-17T07:02:56;7.43;;;1.80;;
76599;SDS011;65489;52.048;6.090;2023-05-17T07:05:21;8.48;;;2.00;;
76599;SDS011;65489;52.048;6.090;2023-05-17T07:07:48;9.82;;;1.75;;
76599;SDS011;65489;52.048;6.090;2023-05-17T07:10:13;6.85;;;1.90;;
76599;SDS011;65489;52.048;6.090;2023-05-17T07:12:39;7.43;;;2.22;;
76599;SDS011;65489;52.048;6.090;2023-05-17T07:15:04;8.40;;;1.73;;
76599;SDS011;65489;52.048;6.090;2023-05-17T07:17:33;6.03;;;1.77;;
76599;SDS011;65489;52.048;6.090;2023-05-17T07:19:58;7.32;;;1.73;;
76599;SDS011;65489;52.048;6.090;2023-05-17T07:22:24;6.47;;;1.90;;
76599;SDS011;65489;52.048;6.090;2023-05-17T07:24:49;8.25;;;2.00;;
76599;SDS011;65489;52.048;6.090;2023-05-17T07:27:16;6.35;;;1.75;;
76599;SDS011;65489;52.048;6.090;2023-05-17T07:29:41;4.68;;;2.00;;
76599;SDS011;65489;52.048;6.090;2023-05-17T07:32:07;5.78;;;1.85;;
76599;SDS011;65489;52.048;6.090;2023-05-17T07:34:33;7.10;;;2.05;;
76599;SDS011;65489;52.048;6.090;2023-05-17T07:36:59;5.97;;;1.83;;
76599;SDS011;65489;52.048;6.090;2023-05-17T07:39:25;5.88;;;1.95;;
76599;SDS011;65489;52.048;6.090;2023-05-17T07:41:50;7.72;;;1.77;;
76599;SDS011;65489;52.048;6.090;2023-05-17T07:44:16;4.75;;;1.73;;
76599;SDS011;65489;52.048;6.090;2023-05-17T07:46:41;6.45;;;2.03;;
76599;SDS011;65489;52.048;6.090;2023-05-17T07:49:07;4.40;;;1.67;;
76599;SDS011;65489;52.048;6.090;2023-05-17T07:51:33;6.82;;;1.80;;
76599;SDS011;65489;52.048;6.090;2023-05-17T07:53:58;8.02;;;2.10;;
76599;SDS011;65489;52.048;6.090;2023-05-17T07:56:27;5.03;;;1.73;;
76599;SDS011;65489;52.048;6.090;2023-05-17T07:58:52;6.10;;;2.00;;
76599;SDS011;65489;52.048;6.090;2023-05-17T08:01:17;5.45;;;2.03;;
76599;SDS011;65489;52.048;6.090;2023-05-17T08:03:43;7.82;;;1.80;;
76599;SDS011;65489;52.048;6.090;2023-05-17T08:06:12;7.10;;;2.22;;
76599;SDS011;65489;52.048;6.090;2023-05-17T08:08:39;7.35;;;2.05;;
76599;SDS011;65489;52.048;6.090;2023-05-17T08:11:05;6.80;;;1.98;;
76599;SDS011;65489;52.048;6.090;2023-05-17T08:13:31;9.13;;;2.10;;
76599;SDS011;65489;52.048;6.090;2023-05-17T08:15:56;5.13;;;2.10;;
76599;SDS011;65489;52.048;6.090;2023-05-17T08:18:26;9.00;;;2.30;;
76599;SDS011;65489;52.048;6.090;2023-05-17T08:20:51;3.90;;;1.85;;
76599;SDS011;65489;52.048;6.090;2023-05-17T08:23:17;6.90;;;1.95;;
76599;SDS011;65489;52.048;6.090;2023-05-17T08:25:43;7.00;;;1.90;;
76599;SDS011;65489;52.048;6.090;2023-05-17T08:28:10;6.57;;;2.10;;
76599;SDS011;65489;52.048;6.090;2023-05-17T08:30:36;5.10;;;1.85;;
76599;SDS011;65489;52.048;6.090;2023-05-17T08:33:01;6.05;;;1.90;;
76599;SDS011;65489;52.048;6.090;2023-05-17T08:35:27;7.35;;;1.88;;
76599;SDS011;65489;52.048;6.090;2023-05-17T08:37:52;5.45;;;1.67;;
76599;SDS011;65489;52.048;6.090;2023-05-17T08:40:19;10.93;;;4.00;;
76599;SDS011;65489;52.048;6.090;2023-05-17T08:42:45;14.95;;;4.53;;
76599;SDS011;65489;52.048;6.090;2023-05-17T08:45:11;11.23;;;4.18;;
76599;SDS011;65489;52.048;6.090;2023-05-17T08:47:38;10.68;;;3.90;;
76599;SDS011;65489;52.048;6.090;2023-05-17T08:50:04;10.48;;;4.13;;
76599;SDS011;65489;52.048;6.090;2023-05-17T08:52:30;15.13;;;4.70;;
76599;SDS011;65489;52.048;6.090;2023-05-17T08:54:56;15.77;;;4.50;;
76599;SDS011;65489;52.048;6.090;2023-05-17T08:57:23;14.55;;;5.22;;
76599;SDS011;65489;52.048;6.090;2023-05-17T08:59:50;13.70;;;5.32;;
76599;SDS011;65489;52.048;6.090;2023-05-17T09:02:16;15.27;;;5.13;;
76599;SDS011;65489;52.048;6.090;2023-05-17T09:04:41;14.60;;;4.97;;
76599;SDS011;65489;52.048;6.090;2023-05-17T09:07:07;15.52;;;5.10;;
76599;SDS011;65489;52.048;6.090;2023-05-17T09:09:33;11.95;;;4.80;;
76599;SDS011;65489;52.048;6.090;2023-05-17T09:11:59;13.02;;;5.15;;
76599;SDS011;65489;52.048;6.090;2023-05-17T09:14:31;14.57;;;5.65;;
76599;SDS011;65489;52.048;6.090;2023-05-17T09:16:58;14.02;;;4.78;;
76599;SDS011;65489;52.048;6.090;2023-05-17T09:19:25;13.30;;;4.53;;
76599;SDS011;65489;52.048;6.090;2023-05-17T09:21:52;12.55;;;3.72;;
76599;SDS011;65489;52.048;6.090;2023-05-17T09:24:18;12.57;;;3.78;;
76599;SDS011;65489;52.048;6.090;2023-05-17T09:26:51;12.38;;;3.85;;
76599;SDS011;65489;52.048;6.090;2023-05-17T09:29:17;10.85;;;3.42;;
76599;SDS011;65489;52.048;6.090;2023-05-17T09:31:42;11.05;;;3.28;;
76599;SDS011;65489;52.048;6.090;2023-05-17T09:34:08;8.48;;;3.35;;
76599;SDS011;65489;52.048;6.090;2023-05-17T09:36:34;10.18;;;3.13;;
76599;SDS011;65489;52.048;6.090;2023-05-17T09:39:02;9.43;;;3.25;;
76599;SDS011;65489;52.048;6.090;2023-05-17T09:41:30;9.70;;;2.63;;
76599;SDS011;65489;52.048;6.090;2023-05-17T09:44:00;7.88;;;2.85;;
76599;SDS011;65489;52.048;6.090;2023-05-17T09:46:29;6.47;;;2.35;;
76599;SDS011;65489;52.048;6.090;2023-05-17T09:48:59;5.55;;;2.42;;
76599;SDS011;65489;52.048;6.090;2023-05-17T09:51:33;6.32;;;2.33;;
76599;SDS011;65489;52.048;6.090;2023-05-17T09:54:07;6.97;;;2.05;;
76599;SDS011;65489;52.048;6.090;2023-05-17T09:56:34;8.23;;;2.25;;
76599;SDS011;65489;52.048;6.090;2023-05-17T09:59:00;5.00;;;2.10;;
76599;SDS011;65489;52.048;6.090;2023-05-17T10:01:27;7.65;;;2.20;;
76599;SDS011;65489;52.048;6.090;2023-05-17T10:03:55;6.50;;;1.73;;
76599;SDS011;65489;52.048;6.090;2023-05-17T10:06:24;5.50;;;1.52;;
76599;SDS011;65489;52.048;6.090;2023-05-17T10:08:51;5.53;;;1.50;;
76599;SDS011;65489;52.048;6.090;2023-05-17T10:11:21;6.38;;;1.67;;
76599;SDS011;65489;52.048;6.090;2023-05-17T10:13:51;5.53;;;1.70;;
76599;SDS011;65489;52.048;6.090;2023-05-17T10:16:19;6.97;;;1.90;;
76599;SDS011;65489;52.048;6.090;2023-05-17T10:18:47;4.28;;;1.35;;
76599;SDS011;65489;52.048;6.090;2023-05-17T10:21:13;4.93;;;1.60;;
76599;SDS011;65489;52.048;6.090;2023-05-17T10:23:39;4.75;;;1.40;;
76599;SDS011;65489;52.048;6.090;2023-05-17T10:26:06;5.72;;;1.75;;
76599;SDS011;65489;52.048;6.090;2023-05-17T10:28:32;4.47;;;1.48;;
76599;SDS011;65489;52.048;6.090;2023-05-17T10:30:58;5.05;;;1.50;;
76599;SDS011;65489;52.048;6.090;2023-05-17T10:33:25;5.03;;;1.40;;
76599;SDS011;65489;52.048;6.090;2023-05-17T10:35:52;5.45;;;1.52;;
76599;SDS011;65489;52.048;6.090;2023-05-17T10:38:18;4.60;;;1.27;;
76599;SDS011;65489;52.048;6.090;2023-05-17T10:40:43;5.95;;;1.50;;
76599;SDS011;65489;52.048;6.090;2023-05-17T10:43:10;4.68;;;1.30;;
76599;SDS011;65489;52.048;6.090;2023-05-17T10:45:36;4.63;;;1.33;;
76599;SDS011;65489;52.048;6.090;2023-05-17T10:48:05;4.72;;;1.67;;
76599;SDS011;65489;52.048;6.090;2023-05-17T10:50:31;4.85;;;1.50;;
76599;SDS011;65489;52.048;6.090;2023-05-17T10:52:57;4.55;;;1.52;;
76599;SDS011;65489;52.048;6.090;2023-05-17T10:55:23;3.72;;;1.33;;
76599;SDS011;65489;52.048;6.090;2023-05-17T11:00:39;2.50;;;1.00;;
76599;SDS011;65489;52.048;6.090;2023-05-17T11:05:41;6.43;;;1.30;;
76599;SDS011;65489;52.048;6.090;2023-05-17T11:08:15;3.35;;;1.17;;
76599;SDS011;65489;52.048;6.090;2023-05-17T11:13:33;5.93;;;1.27;;
76599;SDS011;65489;52.048;6.090;2023-05-17T11:16:02;2.88;;;1.23;;
76599;SDS011;65489;52.048;6.090;2023-05-17T11:18:44;2.60;;;1.00;;
76599;SDS011;65489;52.048;6.090;2023-05-17T11:21:16;2.10;;;0.80;;
76599;SDS011;65489;52.048;6.090;2023-05-17T11:23:43;3.58;;;1.10;;
76599;SDS011;65489;52.048;6.090;2023-05-17T11:28:56;3.75;;;1.25;;
76599;SDS011;65489;52.048;6.090;2023-05-17T11:31:28;2.50;;;0.95;;
76599;SDS011;65489;52.048;6.090;2023-05-17T11:33:56;4.20;;;0.90;;
76599;SDS011;65489;52.048;6.090;2023-05-17T11:36:22;4.68;;;0.93;;
76599;SDS011;65489;52.048;6.090;2023-05-17T11:38:48;3.38;;;1.05;;
76599;SDS011;65489;52.048;6.090;2023-05-17T11:41:18;4.35;;;1.30;;
76599;SDS011;65489;52.048;6.090;2023-05-17T11:43:46;1.80;;;0.90;;
76599;SDS011;65489;52.048;6.090;2023-05-17T11:46:19;3.03;;;0.93;;
76599;SDS011;65489;52.048;6.090;2023-05-17T11:48:46;1.90;;;0.88;;
76599;SDS011;65489;52.048;6.090;2023-05-17T11:51:13;4.82;;;1.10;;
76599;SDS011;65489;52.048;6.090;2023-05-17T11:53:40;1.92;;;0.75;;
76599;SDS011;65489;52.048;6.090;2023-05-17T11:56:06;2.45;;;0.90;;
76599;SDS011;65489;52.048;6.090;2023-05-17T11:58:32;4.60;;;0.90;;
76599;SDS011;65489;52.048;6.090;2023-05-17T12:00:57;3.13;;;0.85;;
76599;SDS011;65489;52.048;6.090;2023-05-17T12:03:24;2.85;;;0.80;;
76599;SDS011;65489;52.048;6.090;2023-05-17T12:08:43;2.85;;;0.90;;
76599;SDS011;65489;52.048;6.090;2023-05-17T12:11:15;2.03;;;0.77;;
76599;SDS011;65489;52.048;6.090;2023-05-17T12:13:41;2.67;;;1.02;;
76599;SDS011;65489;52.048;6.090;2023-05-17T12:16:19;2.83;;;0.80;;
76599;SDS011;65489;52.048;6.090;2023-05-17T12:18:49;1.90;;;0.70;;
76599;SDS011;65489;52.048;6.090;2023-05-17T12:21:16;3.38;;;0.88;;
76599;SDS011;65489;52.048;6.090;2023-05-17T12:23:45;3.83;;;0.82;;
76599;SDS011;65489;52.048;6.090;2023-05-17T12:26:12;1.75;;;0.77;;
76599;SDS011;65489;52.048;6.090;2023-05-17T12:28:40;3.03;;;0.90;;
76599;SDS011;65489;52.048;6.090;2023-05-17T12:31:09;5.38;;;1.00;;
76599;SDS011;65489;52.048;6.090;2023-05-17T12:33:38;3.38;;;0.90;;
76599;SDS011;65489;52.048;6.090;2023-05-17T12:36:06;2.00;;;0.82;;
76599;SDS011;65489;52.048;6.090;2023-05-17T12:38:32;2.15;;;0.85;;
76599;SDS011;65489;52.048;6.090;2023-05-17T12:41:02;3.15;;;1.10;;
76599;SDS011;65489;52.048;6.090;2023-05-17T12:43:28;2.42;;;0.70;;
76599;SDS011;65489;52.048;6.090;2023-05-17T12:46:02;3.75;;;1.00;;
76599;SDS011;65489;52.048;6.090;2023-05-17T12:48:39;2.15;;;0.77;;
76599;SDS011;65489;52.048;6.090;2023-05-17T12:53:38;1.75;;;0.50;;
76599;SDS011;65489;52.048;6.090;2023-05-17T12:56:17;1.85;;;0.60;;
76599;SDS011;65489;52.048;6.090;2023-05-17T12:58:46;2.65;;;0.80;;
76599;SDS011;65489;52.048;6.090;2023-05-17T13:01:43;1.30;;;0.70;;
76599;SDS011;65489;52.048;6.090;2023-05-17T13:04:08;2.72;;;0.75;;
76599;SDS011;65489;52.048;6.090;2023-05-17T13:06:50;4.38;;;0.90;;
76599;SDS011;65489;52.048;6.090;2023-05-17T13:09:18;2.42;;;0.70;;
76599;SDS011;65489;52.048;6.090;2023-05-17T13:11:51;2.83;;;0.70;;
76599;SDS011;65489;52.048;6.090;2023-05-17T13:17:26;2.78;;;0.80;;
76599;SDS011;65489;52.048;6.090;2023-05-17T13:19:59;1.95;;;0.60;;
76599;SDS011;65489;52.048;6.090;2023-05-17T13:22:24;2.63;;;0.75;;
76599;SDS011;65489;52.048;6.090;2023-05-17T13:24:50;1.50;;;0.60;;
76599;SDS011;65489;52.048;6.090;2023-05-17T13:27:15;2.42;;;0.80;;
76599;SDS011;65489;52.048;6.090;2023-05-17T13:29:41;3.88;;;1.13;;
76599;SDS011;65489;52.048;6.090;2023-05-17T13:32:07;1.35;;;0.52;;
76599;SDS011;65489;52.048;6.090;2023-05-17T13:34:34;3.03;;;1.02;;
76599;SDS011;65489;52.048;6.090;2023-05-17T13:37:00;2.40;;;0.90;;
76599;SDS011;65489;52.048;6.090;2023-05-17T13:39:25;6.38;;;0.90;;
76599;SDS011;65489;52.048;6.090;2023-05-17T13:41:51;2.92;;;1.00;;
76599;SDS011;65489;52.048;6.090;2023-05-17T13:44:16;4.65;;;0.90;;
76599;SDS011;65489;52.048;6.090;2023-05-17T13:46:42;2.17;;;0.70;;
76599;SDS011;65489;52.048;6.090;2023-05-17T13:49:07;1.52;;;0.57;;
76599;SDS011;65489;52.048;6.090;2023-05-17T13:51:33;1.30;;;0.50;;
76599;SDS011;65489;52.048;6.090;2023-05-17T13:53:59;3.05;;;0.70;;
76599;SDS011;65489;52.048;6.090;2023-05-17T13:56:24;2.15;;;0.70;;
76599;SDS011;65489;52.048;6.090;2023-05-17T13:58:50;2.35;;;0.80;;
76599;SDS011;65489;52.048;6.090;2023-05-17T14:01:15;2.08;;;0.70;;
76599;SDS011;65489;52.048;6.090;2023-05-17T14:03:42;1.90;;;0.60;;
76599;SDS011;65489;52.048;6.090;2023-05-17T14:06:08;2.47;;;0.82;;
76599;SDS011;65489;52.048;6.090;2023-05-17T14:08:34;1.73;;;0.70;;
76599;SDS011;65489;52.048;6.090;2023-05-17T14:10:59;3.03;;;0.90;;
76599;SDS011;65489;52.048;6.090;2023-05-17T14:13:25;2.55;;;0.60;;
76599;SDS011;65489;52.048;6.090;2023-05-17T14:15:51;1.25;;;0.50;;
76599;SDS011;65489;52.048;6.090;2023-05-17T14:18:16;2.53;;;0.65;;
76599;SDS011;65489;52.048;6.090;2023-05-17T14:20:42;0.90;;;0.50;;
76599;SDS011;65489;52.048;6.090;2023-05-17T14:23:07;1.70;;;0.73;;
76599;SDS011;65489;52.048;6.090;2023-05-17T14:25:33;1.80;;;0.63;;
76599;SDS011;65489;52.048;6.090;2023-05-17T14:27:58;2.28;;;0.70;;
76599;SDS011;65489;52.048;6.090;2023-05-17T14:30:23;3.63;;;0.70;;
76599;SDS011;65489;52.048;6.090;2023-05-17T14:32:49;1.73;;;0.50;;
76599;SDS011;65489;52.048;6.090;2023-05-17T14:35:15;2.35;;;0.63;;
76599;SDS011;65489;52.048;6.090;2023-05-17T14:37:43;4.78;;;0.90;;
76599;SDS011;65489;52.048;6.090;2023-05-17T14:40:09;2.47;;;0.80;;
76599;SDS011;65489;52.048;6.090;2023-05-17T14:42:36;3.88;;;1.10;;
76599;SDS011;65489;52.048;6.090;2023-05-17T14:45:02;3.13;;;0.65;;
76599;SDS011;65489;52.048;6.090;2023-05-17T14:47:27;1.83;;;0.60;;
76599;SDS011;65489;52.048;6.090;2023-05-17T14:49:53;2.30;;;0.63;;
76599;SDS011;65489;52.048;6.090;2023-05-17T14:52:18;1.30;;;0.60;;
76599;SDS011;65489;52.048;6.090;2023-05-17T14:54:44;3.63;;;0.80;;
76599;SDS011;65489;52.048;6.090;2023-05-17T14:57:09;4.40;;;1.00;;
76599;SDS011;65489;52.048;6.090;2023-05-17T14:59:36;3.22;;;0.60;;
76599;SDS011;65489;52.048;6.090;2023-05-17T15:02:02;2.28;;;1.02;;
76599;SDS011;65489;52.048;6.090;2023-05-17T15:04:28;1.35;;;0.57;;
76599;SDS011;65489;52.048;6.090;2023-05-17T15:06:53;5.03;;;1.00;;
76599;SDS011;65489;52.048;6.090;2023-05-17T15:09:19;2.28;;;0.80;;
76599;SDS011;65489;52.048;6.090;2023-05-17T15:11:49;2.67;;;0.90;;